createdAt,value
2019-03-04T00:02:27.368Z,2.30
2019-03-04T00:04:57.688Z,2.60
2019-03-04T00:07:27.951Z,2.40
2019-03-04T00:09:58.229Z,2.90
2019-03-04T00:12:28.483Z,2.20
2019-03-04T00:14:58.673Z,2.20
2019-03-04T00:17:28.888Z,2.43
2019-03-04T00:19:59.098Z,2.37
2019-03-04T00:22:29.356Z,2.40
2019-03-04T00:24:59.555Z,2.27
2019-03-04T00:27:29.774Z,3.27
2019-03-04T00:29:59.966Z,2.50
2019-03-04T00:32:30.168Z,2.93
2019-03-04T00:35:00.480Z,2.70
2019-03-04T00:37:30.686Z,2.80
2019-03-04T00:40:00.968Z,2.40
2019-03-04T00:42:32.450Z,2.40
2019-03-04T00:45:02.672Z,2.30
2019-03-04T00:47:33.026Z,2.80
2019-03-04T00:50:03.261Z,2.60
2019-03-04T00:52:33.433Z,2.63
2019-03-04T00:55:03.676Z,2.70
2019-03-04T00:57:33.908Z,2.40
2019-03-04T01:00:05.020Z,2.70
2019-03-04T01:02:36.774Z,3.10
2019-03-04T01:05:07.304Z,2.63
2019-03-04T01:07:37.495Z,2.90
2019-03-04T01:10:08.020Z,2.60
2019-03-04T01:12:38.224Z,3.10
2019-03-04T01:15:11.013Z,2.90
2019-03-04T01:17:41.227Z,2.33
2019-03-04T01:20:12.797Z,2.80
2019-03-04T01:22:43.068Z,2.70
2019-03-04T01:25:17.634Z,2.40
2019-03-04T01:27:47.971Z,3.20
2019-03-04T01:30:33.593Z,3.03
2019-03-04T01:33:03.786Z,2.60
2019-03-04T01:35:34.203Z,2.73
2019-03-04T01:38:04.425Z,3.10
2019-03-04T01:40:34.574Z,2.30
2019-03-04T01:43:04.785Z,2.50
2019-03-04T01:45:34.968Z,2.63
2019-03-04T01:48:05.214Z,2.30
2019-03-04T01:50:35.596Z,2.67
2019-03-04T01:53:05.755Z,2.70
2019-03-04T01:55:35.962Z,2.63
2019-03-04T01:58:06.180Z,2.57
2019-03-04T02:00:36.360Z,3.13
2019-03-04T02:03:06.752Z,2.63
2019-03-04T02:05:36.942Z,2.93
2019-03-04T02:08:07.279Z,2.27
2019-03-04T02:10:37.502Z,2.37
2019-03-04T02:13:07.736Z,2.70
2019-03-04T02:15:37.965Z,2.50
2019-03-04T02:18:08.117Z,2.33
2019-03-04T02:20:38.473Z,2.47
2019-03-04T02:23:08.750Z,2.60
2019-03-04T02:26:15.071Z,2.33
2019-03-04T02:28:45.352Z,2.47
2019-03-04T02:31:15.637Z,2.77
2019-03-04T02:33:45.864Z,2.63
2019-03-04T02:36:16.051Z,3.03
2019-03-04T02:38:46.240Z,2.80
2019-03-04T02:41:16.417Z,2.53
2019-03-04T02:43:46.690Z,2.53
2019-03-04T02:46:16.886Z,2.67
2019-03-04T02:48:47.042Z,2.20
2019-03-04T02:51:17.227Z,2.43
2019-03-04T02:53:47.572Z,2.60
2019-03-04T02:56:19.308Z,2.60
2019-03-04T02:58:49.493Z,2.80
2019-03-04T03:01:19.791Z,2.90
2019-03-04T03:03:50.460Z,2.70
2019-03-04T03:06:20.685Z,2.97
2019-03-04T03:08:50.980Z,2.60
2019-03-04T03:11:21.249Z,2.63
2019-03-04T03:13:51.427Z,2.47
2019-03-04T03:16:21.655Z,2.23
2019-03-04T03:18:51.890Z,2.37
2019-03-04T03:21:22.152Z,2.47
2019-03-04T03:23:52.520Z,2.20
2019-03-04T03:26:22.734Z,2.40
2019-03-04T03:28:52.932Z,2.67
2019-03-04T03:31:23.144Z,2.73
2019-03-04T03:33:53.361Z,2.73
2019-03-04T03:36:23.558Z,2.80
2019-03-04T03:38:53.806Z,2.67
2019-03-04T03:41:23.994Z,2.37
2019-03-04T03:43:54.194Z,2.53
2019-03-04T03:46:24.470Z,2.27
2019-03-04T03:48:54.765Z,2.30
2019-03-04T03:51:25.007Z,2.23
2019-03-04T03:53:55.167Z,2.73
2019-03-04T03:56:25.344Z,2.77
2019-03-04T03:58:55.673Z,2.70
2019-03-04T04:01:25.882Z,3.10
2019-03-04T04:03:56.414Z,2.60
2019-03-04T04:06:26.614Z,2.70
2019-03-04T04:08:56.787Z,2.77
2019-03-04T04:11:27.024Z,2.03
2019-03-04T04:13:57.234Z,2.37
2019-03-04T04:16:27.448Z,2.60
2019-03-04T04:18:57.705Z,2.50
2019-03-04T04:21:27.955Z,2.47
2019-03-04T04:23:58.143Z,2.60
2019-03-04T04:26:28.361Z,2.50
2019-03-04T04:29:08.402Z,2.13
2019-03-04T04:31:38.674Z,2.30
2019-03-04T04:34:08.894Z,1.90
2019-03-04T04:36:39.119Z,2.87
2019-03-04T04:39:09.457Z,2.40
2019-03-04T04:41:39.700Z,2.30
2019-03-04T04:44:10.068Z,2.27
2019-03-04T04:46:54.480Z,2.30
2019-03-04T04:49:26.442Z,2.50
2019-03-04T04:51:56.655Z,2.63
2019-03-04T04:54:26.882Z,2.57
2019-03-04T04:56:57.060Z,2.17
2019-03-04T04:59:27.238Z,2.10
2019-03-04T05:01:57.426Z,8.83
2019-03-04T05:04:28.024Z,5.67
2019-03-04T05:06:58.268Z,4.23
2019-03-04T05:09:28.433Z,2.97
2019-03-04T05:11:59.794Z,2.30
2019-03-04T05:14:30.116Z,2.20
2019-03-04T05:17:00.570Z,2.10
2019-03-04T05:19:30.778Z,1.90
2019-03-04T05:22:00.965Z,2.10
2019-03-04T05:24:31.179Z,2.27
2019-03-04T05:27:01.798Z,1.80
2019-03-04T05:29:32.004Z,1.80
2019-03-04T05:32:02.208Z,2.10
2019-03-04T05:34:32.567Z,2.40
2019-03-04T05:37:02.818Z,2.10
2019-03-04T05:39:33.080Z,1.63
2019-03-04T05:42:03.308Z,2.10
2019-03-04T05:44:33.496Z,2.03
2019-03-04T05:47:03.707Z,1.83
2019-03-04T05:49:34.047Z,1.80
2019-03-04T05:52:05.394Z,2.10
2019-03-04T05:54:36.802Z,2.10
2019-03-04T05:57:07.130Z,2.17
2019-03-04T05:59:37.447Z,2.10
2019-03-04T06:02:09.991Z,1.80
2019-03-04T06:04:42.378Z,2.23
2019-03-04T06:07:25.275Z,2.20
2019-03-04T06:09:55.562Z,1.80
2019-03-04T06:12:25.753Z,2.07
2019-03-04T06:14:56.176Z,2.10
2019-03-04T06:17:26.361Z,2.20
2019-03-04T06:19:56.575Z,2.23
2019-03-04T06:22:26.783Z,2.00
2019-03-04T06:24:57.084Z,2.17
2019-03-04T06:27:27.562Z,2.30
2019-03-04T06:29:57.805Z,2.40
2019-03-04T06:32:28.012Z,1.80
2019-03-04T06:34:58.212Z,2.40
2019-03-04T06:37:30.642Z,2.00
2019-03-04T06:40:03.738Z,2.50
2019-03-04T06:42:34.090Z,1.90
2019-03-04T06:45:05.328Z,2.07
2019-03-04T06:47:35.693Z,2.00
2019-03-04T06:50:06.248Z,2.33
2019-03-04T06:52:36.479Z,2.00
2019-03-04T06:55:31.562Z,1.87
2019-03-04T06:58:01.791Z,2.60
2019-03-04T07:00:40.479Z,2.40
2019-03-04T07:03:16.023Z,2.37
2019-03-04T07:05:53.291Z,2.53
2019-03-04T07:09:14.541Z,2.60
2019-03-04T07:11:52.769Z,2.00
2019-03-04T07:14:22.997Z,2.47
2019-03-04T07:16:54.205Z,2.70
2019-03-04T07:19:32.109Z,2.27
2019-03-04T07:22:02.681Z,2.17
2019-03-04T07:24:34.104Z,1.90
2019-03-04T07:27:04.551Z,1.90
2019-03-04T07:29:36.582Z,2.40
2019-03-04T07:32:07.706Z,1.73
2019-03-04T07:34:38.579Z,2.27
2019-03-04T07:37:08.975Z,1.87
2019-03-04T07:39:41.873Z,2.33
2019-03-04T07:42:13.099Z,1.83
2019-03-04T07:44:43.346Z,2.30
2019-03-04T07:47:14.687Z,2.83
2019-03-04T07:49:49.432Z,1.60
2019-03-04T07:52:19.700Z,2.10
2019-03-04T07:54:49.961Z,1.77
2019-03-04T07:57:38.581Z,2.03
2019-03-04T08:00:09.767Z,1.97
2019-03-04T08:02:40.135Z,2.63
2019-03-04T08:05:10.377Z,2.33
2019-03-04T08:07:46.598Z,2.57
2019-03-04T08:11:14.246Z,2.00
2019-03-04T08:14:02.491Z,2.00
2019-03-04T08:16:36.283Z,2.13
2019-03-04T08:19:07.634Z,1.93
2019-03-04T08:21:37.931Z,2.20
2019-03-04T08:24:08.195Z,1.70
2019-03-04T08:26:38.497Z,1.83
2019-03-04T08:29:09.283Z,2.50
2019-03-04T08:31:39.533Z,2.23
2019-03-04T08:34:09.788Z,2.10
2019-03-04T08:36:44.342Z,1.70
2019-03-04T08:39:15.202Z,2.67
2019-03-04T08:41:45.421Z,2.17
2019-03-04T08:44:17.993Z,2.17
2019-03-04T08:46:48.231Z,2.17
2019-03-04T08:49:18.543Z,1.83
2019-03-04T08:51:48.732Z,2.63
2019-03-04T08:54:18.952Z,1.90
2019-03-04T08:56:49.300Z,2.03
2019-03-04T08:59:21.117Z,2.33
2019-03-04T09:01:51.324Z,2.73
2019-03-04T09:04:21.538Z,2.20
2019-03-04T09:06:51.777Z,2.77
2019-03-04T09:09:22.333Z,2.53
2019-03-04T09:11:52.756Z,2.20
2019-03-04T09:14:39.314Z,2.77
2019-03-04T09:17:11.283Z,2.23
2019-03-04T09:19:41.649Z,2.50
2019-03-04T09:22:11.877Z,2.33
2019-03-04T09:24:42.131Z,3.27
2019-03-04T09:27:13.325Z,2.53
2019-03-04T09:29:46.593Z,2.57
2019-03-04T09:32:16.505Z,2.77
2019-03-04T09:34:46.799Z,2.70
2019-03-04T09:37:17.026Z,3.97
2019-03-04T09:39:54.122Z,3.30
2019-03-04T09:42:27.484Z,2.73
2019-03-04T09:45:01.559Z,2.97
2019-03-04T09:47:31.986Z,3.90
2019-03-04T09:53:38.857Z,2.90
2019-03-04T09:56:02.180Z,3.17
2019-03-04T09:58:32.468Z,2.93
2019-03-04T10:01:27.376Z,3.57
2019-03-04T10:04:22.382Z,3.13
2019-03-04T10:07:39.505Z,3.50
2019-03-04T10:10:54.482Z,3.30
2019-03-04T10:14:19.555Z,3.03
2019-03-04T10:17:16.625Z,2.80
2019-03-04T10:20:25.322Z,3.43
2019-03-04T10:23:37.100Z,3.47
2019-03-04T10:26:36.051Z,3.10
2019-03-04T10:29:42.910Z,3.07
2019-03-04T10:32:52.891Z,3.10
2019-03-04T10:35:48.008Z,3.30
2019-03-04T10:38:55.325Z,3.20
2019-03-04T10:41:45.026Z,2.90
2019-03-04T10:45:05.668Z,3.03
2019-03-04T10:47:38.493Z,2.97
2019-03-04T10:50:10.266Z,2.10
2019-03-04T10:52:40.575Z,2.50
2019-03-04T10:55:11.796Z,2.63
2019-03-04T10:57:42.053Z,2.77
2019-03-04T11:00:17.601Z,2.40
2019-03-04T11:02:47.805Z,2.30
2019-03-04T11:05:18.086Z,2.47
2019-03-04T11:07:48.403Z,2.47
2019-03-04T11:10:18.967Z,2.23
2019-03-04T11:12:49.153Z,2.20
2019-03-04T11:15:21.641Z,1.87
2019-03-04T11:17:54.802Z,1.83
2019-03-04T11:20:26.194Z,1.87
2019-03-04T11:22:56.396Z,2.10
2019-03-04T11:25:26.711Z,2.37
2019-03-04T11:27:57.060Z,2.00
2019-03-04T11:30:29.918Z,2.00
2019-03-04T11:33:00.360Z,2.37
2019-03-04T11:35:30.622Z,1.97
2019-03-04T11:38:01.921Z,2.40
2019-03-04T11:40:37.766Z,2.10
2019-03-04T11:43:08.122Z,1.90
2019-03-04T11:45:38.310Z,2.27
2019-03-04T11:48:09.630Z,2.00
2019-03-04T11:50:39.913Z,1.50
2019-03-04T11:53:11.874Z,1.50
2019-03-04T11:55:44.618Z,1.90
2019-03-04T11:58:14.993Z,1.63
2019-03-04T12:00:53.461Z,1.43
2019-03-04T12:03:25.116Z,1.67
2019-03-04T12:05:55.409Z,1.40
2019-03-04T12:08:26.298Z,1.50
2019-03-04T12:10:56.972Z,1.60
2019-03-04T12:13:27.348Z,1.20
2019-03-04T12:15:58.716Z,1.20
2019-03-04T12:18:29.018Z,1.67
2019-03-04T12:20:59.336Z,1.30
2019-03-04T12:23:31.411Z,1.07
2019-03-04T12:26:01.861Z,1.30
2019-03-04T12:28:32.322Z,1.10
2019-03-04T12:31:05.267Z,1.07
2019-03-04T12:33:35.598Z,1.17
2019-03-04T12:36:12.778Z,1.03
2019-03-04T12:38:43.796Z,0.93
2019-03-04T12:41:14.119Z,1.00
2019-03-04T12:43:44.477Z,1.40
2019-03-04T12:46:14.762Z,0.80
2019-03-04T12:48:45.077Z,0.90
2019-03-04T12:51:22.719Z,0.90
2019-03-04T12:53:47.565Z,0.77
2019-03-04T12:56:17.891Z,0.90
2019-03-04T12:58:48.565Z,1.20
2019-03-04T13:01:18.842Z,1.13
2019-03-04T13:03:49.143Z,1.00
2019-03-04T13:06:19.429Z,1.43
2019-03-04T13:08:49.609Z,1.10
2019-03-04T13:11:20.217Z,0.90
2019-03-04T13:13:50.686Z,0.93
2019-03-04T13:16:21.036Z,0.90
2019-03-04T13:18:52.355Z,0.80
2019-03-04T13:21:22.891Z,1.10
2019-03-04T13:23:53.863Z,0.83
2019-03-04T13:26:24.736Z,0.87
2019-03-04T13:28:55.264Z,0.90
2019-03-04T13:31:25.550Z,0.80
2019-03-04T13:33:55.731Z,1.00
2019-03-04T13:36:26.813Z,1.30
2019-03-04T13:38:57.171Z,0.90
2019-03-04T13:41:27.717Z,0.70
2019-03-04T13:43:59.269Z,0.83
2019-03-04T13:46:29.620Z,1.10
2019-03-04T13:48:59.929Z,1.20
2019-03-04T13:51:30.732Z,1.43
2019-03-04T13:54:02.408Z,1.00
2019-03-04T13:56:32.872Z,1.10
2019-03-04T13:59:03.177Z,1.20
2019-03-04T14:01:34.832Z,1.23
2019-03-04T14:04:07.714Z,1.30
2019-03-04T14:06:39.244Z,0.87
2019-03-04T14:09:30.228Z,1.30
2019-03-04T14:12:02.782Z,1.23
2019-03-04T14:14:35.205Z,1.27
2019-03-04T14:17:10.734Z,1.17
2019-03-04T14:19:48.914Z,1.10
2019-03-04T14:22:21.452Z,0.90
2019-03-04T14:25:02.643Z,1.20
2019-03-04T14:27:37.358Z,1.00
2019-03-04T14:30:14.070Z,0.80
2019-03-04T14:32:55.011Z,0.90
2019-03-04T14:35:26.494Z,1.30
2019-03-04T14:37:58.188Z,1.00
2019-03-04T14:40:42.921Z,1.20
2019-03-04T14:43:16.336Z,1.00
2019-03-04T14:46:35.987Z,1.30
2019-03-04T14:49:07.834Z,1.37
2019-03-04T14:51:53.678Z,1.50
2019-03-04T14:54:28.955Z,1.50
2019-03-04T14:57:00.560Z,1.27
2019-03-04T14:59:34.054Z,1.10
2019-03-04T15:02:07.242Z,1.20
2019-03-04T15:04:40.835Z,1.27
2019-03-04T15:07:31.492Z,1.10
2019-03-04T15:10:05.322Z,1.10
2019-03-04T15:12:40.335Z,1.00
2019-03-04T15:15:12.181Z,1.10
2019-03-04T15:17:43.775Z,1.20
2019-03-04T15:20:18.724Z,1.20
2019-03-04T15:22:50.207Z,1.53
2019-03-04T15:25:27.648Z,1.20
2019-03-04T15:28:11.453Z,1.20
2019-03-04T15:30:43.362Z,1.00
2019-03-04T15:33:18.201Z,1.20
2019-03-04T15:35:50.613Z,1.10
2019-03-04T15:38:22.915Z,1.20
2019-03-04T15:40:56.507Z,1.47
2019-03-04T15:43:27.888Z,1.17
2019-03-04T15:45:59.989Z,1.03
2019-03-04T15:48:30.318Z,0.90
2019-03-04T15:51:00.603Z,1.17
2019-03-04T15:53:49.907Z,1.30
2019-03-04T15:56:20.236Z,1.00
2019-03-04T15:58:51.954Z,1.20
2019-03-04T16:01:23.604Z,1.30
2019-03-04T16:03:54.366Z,1.30
2019-03-04T16:06:25.312Z,1.33
2019-03-04T16:08:55.614Z,1.30
2019-03-04T16:11:25.855Z,1.10
2019-03-04T16:13:56.404Z,1.07
2019-03-04T16:16:27.788Z,1.00
2019-03-04T16:18:58.128Z,1.07
2019-03-04T16:21:30.992Z,1.27
2019-03-04T16:24:01.369Z,1.10
2019-03-04T16:26:31.598Z,1.03
2019-03-04T16:29:01.817Z,1.13
2019-03-04T16:31:32.130Z,1.33
2019-03-04T16:34:02.424Z,1.10
2019-03-04T16:36:36.090Z,1.00
2019-03-04T16:39:27.232Z,1.10
2019-03-04T16:41:57.574Z,1.50
2019-03-04T16:44:27.801Z,1.00
2019-03-04T16:46:58.819Z,1.30
2019-03-04T16:49:30.191Z,1.43
2019-03-04T16:52:00.750Z,1.20
2019-03-04T16:54:32.375Z,1.20
2019-03-04T16:57:07.439Z,1.40
2019-03-04T16:59:37.627Z,1.30
2019-03-04T17:02:07.984Z,1.67
2019-03-04T17:04:39.317Z,1.00
2019-03-04T17:07:09.659Z,1.20
2019-03-04T17:09:51.965Z,0.97
2019-03-04T17:12:30.230Z,1.10
2019-03-04T17:15:03.214Z,1.10
2019-03-04T17:17:37.658Z,1.30
2019-03-04T17:20:10.134Z,1.20
2019-03-04T17:22:42.856Z,1.00
2019-03-04T17:25:16.940Z,1.13
2019-03-04T17:27:48.998Z,1.10
2019-03-04T17:30:19.248Z,1.10
2019-03-04T17:32:49.619Z,1.40
2019-03-04T17:35:19.883Z,1.20
2019-03-04T17:37:51.313Z,1.27
2019-03-04T17:40:21.832Z,1.37
2019-03-04T17:42:52.089Z,1.40
2019-03-04T17:45:24.194Z,1.27
2019-03-04T17:47:54.347Z,1.27
2019-03-04T17:50:32.965Z,1.83
2019-03-04T17:53:04.658Z,1.40
2019-03-04T17:55:34.875Z,1.43
2019-03-04T17:58:05.473Z,1.50
2019-03-04T18:00:37.391Z,1.03
2019-03-04T18:03:07.934Z,1.20
2019-03-04T18:05:38.106Z,1.30
2019-03-04T18:08:08.474Z,1.40
2019-03-04T18:10:38.749Z,1.00
2019-03-04T18:13:11.358Z,1.20
2019-03-04T18:15:41.988Z,1.60
2019-03-04T18:18:13.733Z,1.87
2019-03-04T18:20:45.253Z,2.03
2019-03-04T18:23:15.535Z,1.80
2019-03-04T18:25:55.960Z,2.10
2019-03-04T18:28:57.851Z,2.13
2019-03-04T18:32:05.451Z,2.37
2019-03-04T18:35:23.304Z,2.60
2019-03-04T18:38:38.045Z,2.37
2019-03-04T18:41:20.600Z,2.57
2019-03-04T18:44:11.116Z,3.17
2019-03-04T18:47:24.037Z,2.27
2019-03-04T18:49:56.483Z,3.57
2019-03-04T18:52:26.750Z,3.03
2019-03-04T18:54:57.061Z,2.90
2019-03-04T18:57:27.918Z,3.33
2019-03-04T18:59:59.783Z,3.03
2019-03-04T19:02:29.996Z,2.90
2019-03-04T19:05:01.630Z,3.17
2019-03-04T19:07:31.949Z,3.33
2019-03-04T19:10:02.244Z,2.90
2019-03-04T19:12:35.733Z,4.70
2019-03-04T19:15:07.204Z,3.07
2019-03-04T19:17:43.516Z,3.00
2019-03-04T19:20:20.899Z,3.10
2019-03-04T19:22:52.007Z,3.27
2019-03-04T19:25:22.350Z,3.10
2019-03-04T19:27:52.732Z,3.10
2019-03-04T19:30:23.037Z,2.50
2019-03-04T19:32:53.307Z,2.60
2019-03-04T19:35:25.905Z,2.90
2019-03-04T19:37:56.189Z,2.77
2019-03-04T19:40:26.502Z,2.73
2019-03-04T19:42:56.709Z,2.93
2019-03-04T19:45:27.065Z,2.60
2019-03-04T19:47:57.387Z,2.93
2019-03-04T19:50:27.719Z,2.50
2019-03-04T19:52:58.124Z,2.47
2019-03-04T19:55:28.498Z,2.40
2019-03-04T19:57:58.678Z,2.50
2019-03-04T20:00:32.643Z,2.30
2019-03-04T20:03:03.040Z,2.20
2019-03-04T20:05:34.036Z,2.10
2019-03-04T20:08:04.487Z,1.90
2019-03-04T20:10:34.861Z,2.20
2019-03-04T20:13:05.303Z,2.00
2019-03-04T20:15:35.618Z,2.20
2019-03-04T20:18:06.191Z,2.57
2019-03-04T20:20:36.586Z,2.63
2019-03-04T20:23:07.380Z,2.63
2019-03-04T20:25:37.660Z,1.83
2019-03-04T20:28:08.110Z,3.23
2019-03-04T20:30:40.286Z,2.60
2019-03-04T20:33:12.268Z,2.00
2019-03-04T20:35:42.602Z,2.37
2019-03-04T20:38:14.074Z,2.20
2019-03-04T20:40:44.327Z,2.40
2019-03-04T20:43:14.600Z,2.20
2019-03-04T20:45:45.174Z,2.70
2019-03-04T20:48:16.507Z,2.70
2019-03-04T20:50:47.160Z,2.50
2019-03-04T20:53:17.373Z,2.30
2019-03-04T20:55:49.086Z,2.77
2019-03-04T20:58:20.131Z,3.00
2019-03-04T21:00:50.666Z,3.30
2019-03-04T21:03:21.295Z,3.77
2019-03-04T21:05:53.263Z,3.50
2019-03-04T21:08:23.525Z,2.90
2019-03-04T21:10:53.906Z,3.10
2019-03-04T21:13:35.091Z,3.83
2019-03-04T21:15:57.459Z,2.70
2019-03-04T21:18:28.241Z,3.07
2019-03-04T21:20:58.873Z,3.60
2019-03-04T21:23:29.218Z,3.60
2019-03-04T21:26:15.671Z,3.67
2019-03-04T21:30:03.335Z,3.30
2019-03-04T21:32:52.439Z,4.07
2019-03-04T21:35:52.438Z,3.73
2019-03-04T21:38:26.815Z,3.93
2019-03-04T21:41:26.624Z,4.03
2019-03-04T21:45:02.196Z,5.00
2019-03-04T21:47:44.220Z,3.93
2019-03-04T21:50:17.415Z,4.10
2019-03-04T21:53:02.105Z,3.77
2019-03-04T21:55:49.722Z,4.27
2019-03-04T21:58:19.903Z,4.63
2019-03-04T22:00:56.479Z,4.60
2019-03-04T22:03:32.870Z,4.70
2019-03-04T22:06:03.913Z,4.53
2019-03-04T22:08:34.281Z,4.33
2019-03-04T22:11:10.286Z,5.23
2019-03-04T22:13:41.148Z,4.70
2019-03-04T22:16:17.474Z,4.60
2019-03-04T22:18:50.251Z,4.87
2019-03-04T22:21:22.205Z,5.00
2019-03-04T22:23:52.520Z,4.50
2019-03-04T22:26:23.207Z,5.20
2019-03-04T22:28:53.659Z,4.27
2019-03-04T22:31:24.561Z,4.50
2019-03-04T22:33:54.824Z,4.37
2019-03-04T22:36:25.992Z,4.37
2019-03-04T22:39:00.181Z,4.83
2019-03-04T22:41:30.822Z,4.43
2019-03-04T22:44:01.103Z,4.30
2019-03-04T22:46:31.341Z,4.50
2019-03-04T22:49:01.609Z,4.53
2019-03-04T22:51:31.899Z,4.13
2019-03-04T22:54:02.169Z,4.87
2019-03-04T22:56:32.737Z,4.97
2019-03-04T22:59:03.222Z,4.87
2019-03-04T23:01:41.473Z,4.40
2019-03-04T23:04:44.667Z,4.73
2019-03-04T23:07:44.303Z,4.23
2019-03-04T23:10:39.665Z,4.40
2019-03-04T23:13:39.361Z,4.37
2019-03-04T23:16:12.304Z,4.37
2019-03-04T23:18:42.560Z,4.03
2019-03-04T23:21:13.146Z,4.30
2019-03-04T23:23:43.391Z,4.80
2019-03-04T23:26:13.611Z,4.30
2019-03-04T23:28:43.889Z,3.83
2019-03-04T23:31:15.182Z,3.97
2019-03-04T23:33:45.510Z,3.80
2019-03-04T23:36:15.793Z,4.37
2019-03-04T23:38:46.094Z,4.10
2019-03-04T23:41:18.724Z,4.43
2019-03-04T23:43:51.619Z,4.13
2019-03-04T23:46:21.964Z,3.83
2019-03-04T23:48:52.235Z,3.97
2019-03-04T23:51:22.503Z,4.03
2019-03-04T23:53:52.899Z,3.77
2019-03-04T23:56:23.081Z,3.97
2019-03-04T23:58:53.289Z,3.73
